Watkins Glen, New York
Current Conditions -  °F | °C
As of 2:53 PM on Monday 26 Jan 2015 (Local Time) from KELM Reporting Station
Light Snow Light Snow  
Wind Chill:   Ceiling: 2400
Heat Index: 19°   Visibility: 0.75mi
Dew Point: 15°   Wind: 9mph
Humidity: 85%   Direction: 60°ENE
Pressure: 29.85"   Gusts: NA
Location:  42.38°N, 76.87°W
Report Text: KELM 261953Z AUTO 06008KT 3/4SM -SN BR BKN024 OVC031 M07/M09 A2985 RMK AO2 SLP122 P0000 T10721094 RVRNO
Loading
Personal Weather Stations






























Interactive Weather Map New forecast layout! Learn more

10-Day Weather Forecast

Advertisements
Track Severe Weather on mobile